Terminal Aerodrome Forecast
Issued by NWS

Home | Current Version | Previous Version | Text Only | Print | Product List | Glossary On
Versions: 1 2 3 4 5 6 7 8 9 10 11 12 13 14 15 16 17 18 19
000
FTUS41 KAKQ 161100
TAFPHF
TAF
KPHF 161139Z 1612/1712 35013G20KT P6SM SKC
     FM161600 02013G20KT P6SM SKC
     FM161900 04011G18KT P6SM SKC
     FM170000 06009KT P6SM SKC
     FM171000 06006KT P6SM SCT040=

USA.gov is the U.S. government's official web portal to all federal, state and local government web resources and services.